createdAt,value
2018-09-10T00:02:06.665Z,72.77
2018-09-10T00:04:34.048Z,72.26
2018-09-10T00:07:01.328Z,72.52
2018-09-10T00:09:28.578Z,72.67
2018-09-10T00:11:55.815Z,72.04
2018-09-10T00:14:23.074Z,72.56
2018-09-10T00:16:50.250Z,72.53
2018-09-10T00:19:17.483Z,74.23
2018-09-10T00:21:44.756Z,73.23
2018-09-10T00:24:12.052Z,73.51
2018-09-10T00:26:39.303Z,73.16
2018-09-10T00:29:06.506Z,73.46
2018-09-10T00:31:33.651Z,73.82
2018-09-10T00:34:00.894Z,73.65
2018-09-10T00:36:28.085Z,73.27
2018-09-10T00:38:55.316Z,73.47
2018-09-10T00:41:22.555Z,73.59
2018-09-10T00:43:49.784Z,74.24
2018-09-10T00:46:17.012Z,74.09
2018-09-10T00:48:44.253Z,73.81
2018-09-10T00:51:11.486Z,74.66
2018-09-10T00:53:38.797Z,74.55
2018-09-10T00:56:06.070Z,74.49
2018-09-10T00:58:33.281Z,74.22
2018-09-10T01:01:00.495Z,74.32
2018-09-10T01:03:27.713Z,74.35
2018-09-10T01:05:55.085Z,74.76
2018-09-10T01:08:22.342Z,74.29
2018-09-10T01:10:49.588Z,74.63
2018-09-10T01:13:16.795Z,74.85
2018-09-10T01:15:44.161Z,74.84
2018-09-10T01:18:11.414Z,75.23
2018-09-10T01:20:38.623Z,75.38
2018-09-10T01:23:05.855Z,75.37
2018-09-10T01:25:33.092Z,75.57
2018-09-10T01:28:00.279Z,75.54
2018-09-10T01:30:27.499Z,75.74
2018-09-10T01:32:54.753Z,76.03
2018-09-10T01:35:21.970Z,75.73
2018-09-10T01:37:49.154Z,76.00
2018-09-10T01:40:16.428Z,75.51
2018-09-10T01:42:43.664Z,76.06
2018-09-10T01:45:10.900Z,76.16
2018-09-10T01:47:38.131Z,76.15
2018-09-10T01:50:05.498Z,77.13
2018-09-10T01:52:32.737Z,77.41
2018-09-10T01:55:00.033Z,76.41
2018-09-10T01:57:27.203Z,77.45
2018-09-10T01:59:54.462Z,78.15
2018-09-10T02:02:21.665Z,77.51
2018-09-10T02:04:48.909Z,77.25
2018-09-10T02:07:16.093Z,77.47
2018-09-10T02:09:43.267Z,78.03
2018-09-10T02:12:15.984Z,77.86
2018-09-10T02:14:43.161Z,78.04
2018-09-10T02:17:10.423Z,78.26
2018-09-10T02:19:37.658Z,77.59
2018-09-10T02:22:05.067Z,78.26
2018-09-10T02:24:32.333Z,78.04
2018-09-10T02:27:00.497Z,77.91
2018-09-10T02:29:27.730Z,78.14
2018-09-10T02:31:54.944Z,77.97
2018-09-10T02:34:22.194Z,78.09
2018-09-10T02:36:49.541Z,78.74
2018-09-10T02:39:16.849Z,79.08
2018-09-10T02:41:44.296Z,78.62
2018-09-10T02:44:12.680Z,78.07
2018-09-10T02:46:39.976Z,78.73
2018-09-10T02:49:07.291Z,77.99
2018-09-10T02:51:34.678Z,77.95
2018-09-10T02:54:01.926Z,78.28
2018-09-10T02:56:29.165Z,78.17
2018-09-10T02:58:56.367Z,77.71
2018-09-10T03:01:23.601Z,78.81
2018-09-10T03:03:50.805Z,78.40
2018-09-10T03:06:18.099Z,78.63
2018-09-10T03:08:45.295Z,78.63
2018-09-10T03:11:12.763Z,78.66
2018-09-10T03:13:40.043Z,79.70
2018-09-10T03:16:07.286Z,79.78
2018-09-10T03:18:34.485Z,80.26
2018-09-10T03:21:01.758Z,80.30
2018-09-10T03:23:28.957Z,79.78
2018-09-10T03:25:56.117Z,80.39
2018-09-10T03:28:23.390Z,79.55
2018-09-10T03:30:50.551Z,79.75
2018-09-10T03:33:17.889Z,79.64
2018-09-10T03:35:45.151Z,80.03
2018-09-10T03:38:12.363Z,80.04
2018-09-10T03:40:39.562Z,80.88
2018-09-10T03:43:06.754Z,81.14
2018-09-10T03:45:33.974Z,80.63
2018-09-10T03:48:01.220Z,80.18
2018-09-10T03:50:28.480Z,80.63
2018-09-10T03:52:55.676Z,81.01
2018-09-10T03:58:02.547Z,79.50
2018-09-10T04:00:29.795Z,79.74
2018-09-10T04:02:57.092Z,79.73
2018-09-10T04:05:24.290Z,79.74
2018-09-10T04:07:51.535Z,80.20
2018-09-10T04:10:18.767Z,79.56
2018-09-10T04:12:45.979Z,80.35
2018-09-10T04:15:13.215Z,79.78
2018-09-10T04:17:40.501Z,80.43
2018-09-10T04:20:09.022Z,79.73
2018-09-10T04:22:36.704Z,80.22
2018-09-10T04:25:04.122Z,79.45
2018-09-10T04:27:31.323Z,80.69
2018-09-10T04:29:58.582Z,80.20
2018-09-10T04:32:25.844Z,80.63
2018-09-10T04:34:53.612Z,80.55
2018-09-10T04:37:20.916Z,80.47
2018-09-10T04:39:48.184Z,81.07
2018-09-10T04:42:15.444Z,81.05
2018-09-10T04:44:42.634Z,81.45
2018-09-10T04:47:09.851Z,81.06
2018-09-10T04:49:37.126Z,80.43
2018-09-10T04:52:04.402Z,80.50
2018-09-10T04:54:31.656Z,81.93
2018-09-10T04:56:58.820Z,82.10
2018-09-10T04:59:26.220Z,82.33
2018-09-10T05:01:53.443Z,81.78
2018-09-10T05:04:20.699Z,81.56
2018-09-10T05:06:47.858Z,81.01
2018-09-10T05:09:15.143Z,80.83
2018-09-10T05:11:42.352Z,81.32
2018-09-10T05:14:09.517Z,80.65
2018-09-10T05:16:36.747Z,80.98
2018-09-10T05:19:03.969Z,81.51
2018-09-10T05:21:31.269Z,81.55
2018-09-10T05:23:58.477Z,81.15
2018-09-10T05:26:25.624Z,81.52
2018-09-10T05:28:52.927Z,82.18
2018-09-10T05:31:20.220Z,81.47
2018-09-10T05:33:47.519Z,79.28
2018-09-10T05:36:15.106Z,79.15
2018-09-10T05:38:42.388Z,79.26
2018-09-10T05:41:09.612Z,79.10
2018-09-10T05:43:36.880Z,79.27
2018-09-10T05:46:04.127Z,78.40
2018-09-10T05:48:31.424Z,78.16
2018-09-10T05:50:58.636Z,78.67
2018-09-10T05:53:25.841Z,78.98
2018-09-10T05:55:53.172Z,78.83
2018-09-10T05:58:20.379Z,78.86
2018-09-10T06:00:47.642Z,79.71
2018-09-10T06:03:14.846Z,79.06
2018-09-10T06:05:42.186Z,77.34
2018-09-10T06:08:09.451Z,77.58
2018-09-10T06:10:36.795Z,78.23
2018-09-10T06:13:04.029Z,76.42
2018-09-10T06:15:31.199Z,75.95
2018-09-10T06:17:58.436Z,74.76
2018-09-10T06:20:25.669Z,74.98
2018-09-10T06:22:52.909Z,74.42
2018-09-10T06:25:20.178Z,75.57
2018-09-10T06:27:47.358Z,75.78
2018-09-10T06:30:14.667Z,74.34
2018-09-10T06:32:41.889Z,75.30
2018-09-10T06:35:09.125Z,74.62
2018-09-10T06:37:36.376Z,73.98
2018-09-10T06:40:03.631Z,72.81
2018-09-10T06:42:30.817Z,72.36
2018-09-10T06:44:58.078Z,72.04
2018-09-10T06:47:25.334Z,71.59
2018-09-10T06:49:52.568Z,70.41
2018-09-10T06:52:19.831Z,68.93
2018-09-10T06:54:46.997Z,67.91
2018-09-10T06:57:14.245Z,66.78
2018-09-10T06:59:41.462Z,64.84
2018-09-10T07:02:08.702Z,63.26
2018-09-10T07:04:35.958Z,61.77
2018-09-10T07:07:03.171Z,60.44
2018-09-10T07:09:30.393Z,58.64
2018-09-10T07:11:57.636Z,56.87
2018-09-10T07:14:24.925Z,56.37
2018-09-10T07:16:52.141Z,56.05
2018-09-10T07:19:19.411Z,55.00
2018-09-10T07:21:46.599Z,53.30
2018-09-10T07:24:13.913Z,51.59
2018-09-10T07:26:41.083Z,50.84
2018-09-10T07:29:08.335Z,49.61
2018-09-10T07:31:35.584Z,48.64
2018-09-10T07:34:02.773Z,48.99
2018-09-10T07:36:29.956Z,48.49
2018-09-10T07:38:57.192Z,46.73
2018-09-10T07:41:24.487Z,45.64
2018-09-10T07:43:51.786Z,45.48
2018-09-10T07:46:19.038Z,43.46
2018-09-10T07:48:46.256Z,42.44
2018-09-10T07:51:13.413Z,43.08
2018-09-10T07:53:40.634Z,43.12
2018-09-10T07:56:07.837Z,42.57
2018-09-10T07:58:35.398Z,41.95
2018-09-10T08:01:02.612Z,41.92
2018-09-10T08:03:29.873Z,41.59
2018-09-10T08:05:57.085Z,40.17
2018-09-10T08:08:24.251Z,38.46
2018-09-10T08:10:51.539Z,39.13
2018-09-10T08:13:18.721Z,38.18
2018-09-10T08:15:45.958Z,39.81
2018-09-10T08:18:13.207Z,40.75
2018-09-10T08:20:40.484Z,40.00
2018-09-10T08:23:07.681Z,43.00
2018-09-10T08:25:35.012Z,43.82
2018-09-10T08:28:02.315Z,42.84
2018-09-10T08:30:29.616Z,43.26
2018-09-10T08:32:56.791Z,44.59
2018-09-10T08:35:24.026Z,45.08
2018-09-10T08:37:51.314Z,45.98
2018-09-10T08:40:18.572Z,46.76
2018-09-10T08:42:45.808Z,48.06
2018-09-10T08:45:13.071Z,48.38
2018-09-10T08:47:40.298Z,48.46
2018-09-10T08:50:08.110Z,48.00
2018-09-10T08:52:35.311Z,48.30
2018-09-10T08:55:02.861Z,47.42
2018-09-10T08:57:29.903Z,47.61
2018-09-10T08:59:57.108Z,46.95
2018-09-10T09:02:24.363Z,45.31
2018-09-10T09:04:51.573Z,45.65
2018-09-10T09:07:18.729Z,46.08
2018-09-10T09:09:45.968Z,44.25
2018-09-10T09:12:13.260Z,43.11
2018-09-10T09:14:40.456Z,41.92
2018-09-10T09:17:07.658Z,41.76
2018-09-10T09:19:34.850Z,40.12
2018-09-10T09:22:02.141Z,42.33
2018-09-10T09:24:29.402Z,40.31
2018-09-10T09:26:56.674Z,38.02
2018-09-10T09:29:23.930Z,38.53
2018-09-10T09:31:51.082Z,38.62
2018-09-10T09:34:18.359Z,40.01
2018-09-10T09:36:51.500Z,38.85
2018-09-10T09:39:24.261Z,38.42
2018-09-10T09:41:57.041Z,36.46
2018-09-10T09:44:29.837Z,36.09
2018-09-10T09:46:57.078Z,36.61
2018-09-10T09:49:24.335Z,36.55
2018-09-10T09:51:51.660Z,36.63
2018-09-10T09:54:18.865Z,36.27
2018-09-10T09:56:46.131Z,35.05
2018-09-10T09:59:13.353Z,34.29
2018-09-10T10:01:46.999Z,33.78
2018-09-10T10:04:14.327Z,34.76
2018-09-10T10:06:41.443Z,33.86
2018-09-10T10:09:10.921Z,33.90
2018-09-10T10:11:38.778Z,33.83
2018-09-10T10:14:06.735Z,35.20
2018-09-10T10:16:33.968Z,35.24
2018-09-10T10:19:01.334Z,35.37
2018-09-10T10:21:28.519Z,35.60
2018-09-10T10:23:55.806Z,35.11
2018-09-10T10:26:22.988Z,36.02
2018-09-10T10:28:50.371Z,35.79
2018-09-10T10:31:17.648Z,34.59
2018-09-10T10:33:44.926Z,35.24
2018-09-10T10:36:12.485Z,34.89
2018-09-10T10:38:39.766Z,32.88
2018-09-10T10:41:06.941Z,31.75
2018-09-10T10:43:34.176Z,33.48
2018-09-10T10:46:01.385Z,32.44
2018-09-10T10:48:28.625Z,32.95
2018-09-10T10:50:55.910Z,33.14
2018-09-10T10:53:23.194Z,32.36
2018-09-10T10:55:50.414Z,32.23
2018-09-10T10:58:17.653Z,33.00
2018-09-10T11:00:44.849Z,33.64
2018-09-10T11:03:12.046Z,32.71
2018-09-10T11:05:39.348Z,30.68
2018-09-10T11:08:06.521Z,31.29
2018-09-10T11:10:33.801Z,32.13
2018-09-10T11:13:01.052Z,31.46
2018-09-10T11:15:28.265Z,31.29
2018-09-10T11:17:55.503Z,31.48
2018-09-10T11:20:22.752Z,32.72
2018-09-10T11:22:49.959Z,33.26
2018-09-10T11:25:17.228Z,32.28
2018-09-10T11:27:44.560Z,32.52
2018-09-10T11:30:11.765Z,33.47
2018-09-10T11:32:39.263Z,33.32
2018-09-10T11:35:06.560Z,33.20
2018-09-10T11:37:33.856Z,34.03
2018-09-10T11:40:01.169Z,34.82
2018-09-10T11:42:28.496Z,35.29
2018-09-10T11:44:55.703Z,34.95
2018-09-10T11:47:22.961Z,36.17
2018-09-10T11:49:50.267Z,35.40
2018-09-10T11:52:17.613Z,36.11
2018-09-10T11:54:44.869Z,34.98
2018-09-10T11:57:12.181Z,35.93
2018-09-10T11:59:39.379Z,35.46
2018-09-10T12:02:07.363Z,33.69
2018-09-10T12:04:34.570Z,33.88
2018-09-10T12:07:01.842Z,34.59
2018-09-10T12:09:29.090Z,33.12
2018-09-10T12:11:56.307Z,33.49
2018-09-10T12:14:23.632Z,33.17
2018-09-10T12:16:50.875Z,33.74
2018-09-10T12:19:18.135Z,32.91
2018-09-10T12:21:45.371Z,33.89
2018-09-10T12:24:12.594Z,33.37
2018-09-10T12:26:39.895Z,32.71
2018-09-10T12:29:07.147Z,31.78
2018-09-10T12:31:34.415Z,32.85
2018-09-10T12:34:01.710Z,31.64
2018-09-10T12:36:28.979Z,30.50
2018-09-10T12:38:56.182Z,31.09
2018-09-10T12:41:23.406Z,30.81
2018-09-10T12:43:50.593Z,30.19
2018-09-10T12:46:17.851Z,31.28
2018-09-10T12:48:45.057Z,30.85
2018-09-10T12:51:12.302Z,31.57
2018-09-10T12:53:39.480Z,31.42
2018-09-10T12:56:06.761Z,30.96
2018-09-10T12:58:34.018Z,31.59
2018-09-10T13:01:01.206Z,31.62
2018-09-10T13:03:28.415Z,31.45
2018-09-10T13:05:55.630Z,31.59
2018-09-10T13:08:22.865Z,31.88
2018-09-10T13:10:50.247Z,31.36
2018-09-10T13:13:17.283Z,32.10
2018-09-10T13:15:44.450Z,31.95
2018-09-10T13:18:11.655Z,31.13
2018-09-10T13:20:38.857Z,30.78
2018-09-10T13:23:06.119Z,30.33
2018-09-10T13:25:33.296Z,30.05
2018-09-10T13:28:00.562Z,28.80
2018-09-10T13:30:27.760Z,28.53
2018-09-10T13:32:54.967Z,30.00
2018-09-10T13:35:22.187Z,28.90
2018-09-10T13:37:49.454Z,29.25
2018-09-10T13:40:17.092Z,30.00
2018-09-10T13:42:44.312Z,30.17
2018-09-10T13:45:11.763Z,28.43
2018-09-10T13:47:38.944Z,26.58
2018-09-10T13:50:06.194Z,27.12
2018-09-10T13:52:33.444Z,27.03
2018-09-10T13:55:00.637Z,26.21
2018-09-10T13:57:27.859Z,26.65
2018-09-10T13:59:55.147Z,26.37
2018-09-10T14:02:22.409Z,27.05
2018-09-10T14:04:49.595Z,27.50
2018-09-10T14:07:17.045Z,27.56
2018-09-10T14:09:44.283Z,26.99
2018-09-10T14:12:11.524Z,27.73
2018-09-10T14:14:38.739Z,27.98
2018-09-10T14:17:05.981Z,27.67
2018-09-10T14:19:33.206Z,28.03
2018-09-10T14:22:00.467Z,28.03
2018-09-10T14:24:27.714Z,28.92
2018-09-10T14:26:54.996Z,29.26
2018-09-10T14:29:22.197Z,27.44
2018-09-10T14:31:49.673Z,27.94
2018-09-10T14:36:39.944Z,28.14
2018-09-10T14:39:07.724Z,27.50
2018-09-10T14:41:35.194Z,28.15
2018-09-10T14:44:02.418Z,27.45
2018-09-10T14:46:29.610Z,27.26
2018-09-10T14:48:56.929Z,26.71
2018-09-10T14:51:24.164Z,26.32
2018-09-10T14:53:51.896Z,26.50
2018-09-10T14:56:19.230Z,26.75
2018-09-10T14:58:46.440Z,26.76
2018-09-10T15:01:13.657Z,25.69
2018-09-10T15:03:40.939Z,26.42
2018-09-10T15:06:08.135Z,26.48
2018-09-10T15:08:35.384Z,26.96
2018-09-10T15:11:02.573Z,26.72
2018-09-10T15:13:29.806Z,25.74
2018-09-10T15:15:56.997Z,25.67
2018-09-10T15:18:24.263Z,25.32
2018-09-10T15:20:51.436Z,25.38
2018-09-10T15:23:18.678Z,25.12
2018-09-10T15:25:45.850Z,24.88
2018-09-10T15:28:13.063Z,24.95
2018-09-10T15:30:40.271Z,25.23
2018-09-10T15:33:07.506Z,25.97
2018-09-10T15:35:34.675Z,26.82
2018-09-10T15:38:02.254Z,26.93
2018-09-10T15:40:29.519Z,26.84
2018-09-10T15:42:56.787Z,26.43
2018-09-10T15:45:24.110Z,26.51
2018-09-10T15:47:51.334Z,25.95
2018-09-10T15:50:18.523Z,26.16
2018-09-10T15:52:45.809Z,27.00
2018-09-10T15:55:12.994Z,27.73
2018-09-10T15:57:40.236Z,27.26
2018-09-10T16:00:07.551Z,27.81
2018-09-10T16:02:34.711Z,28.18
2018-09-10T16:05:01.999Z,28.16
2018-09-10T16:07:29.266Z,29.00
2018-09-10T16:09:56.544Z,29.44
2018-09-10T16:12:23.817Z,29.84
2018-09-10T16:14:51.068Z,30.09
2018-09-10T16:17:18.346Z,30.20
2018-09-10T16:19:45.579Z,29.65
2018-09-10T16:22:12.826Z,30.13
2018-09-10T16:24:40.036Z,30.38
2018-09-10T16:27:07.430Z,29.99
2018-09-10T16:29:34.652Z,29.38
2018-09-10T16:32:01.910Z,29.74
2018-09-10T16:34:29.106Z,29.16
2018-09-10T16:36:56.296Z,29.75
2018-09-10T16:39:23.510Z,30.10
2018-09-10T16:41:50.775Z,30.92
2018-09-10T16:44:17.930Z,30.06
2018-09-10T16:46:45.148Z,31.24
2018-09-10T16:49:12.499Z,31.29
2018-09-10T16:51:39.705Z,32.33
2018-09-10T16:54:06.907Z,32.90
2018-09-10T16:56:34.061Z,33.25
2018-09-10T16:59:01.334Z,33.66
2018-09-10T17:01:28.532Z,33.64
2018-09-10T17:03:55.726Z,34.41
2018-09-10T17:06:22.989Z,34.34
2018-09-10T17:08:50.233Z,34.66
2018-09-10T17:11:17.446Z,34.26
2018-09-10T17:13:44.687Z,35.40
2018-09-10T17:16:11.878Z,35.39
2018-09-10T17:23:25.123Z,37.06
2018-09-10T17:25:53.943Z,36.16
2018-09-10T17:28:21.394Z,36.58
2018-09-10T17:30:48.703Z,36.51
2018-09-10T17:33:16.067Z,37.21
2018-09-10T17:35:43.223Z,38.38
2018-09-10T17:38:10.428Z,38.98
2018-09-10T17:40:37.630Z,39.84
2018-09-10T17:43:04.864Z,39.67
2018-09-10T17:45:32.205Z,39.16
2018-09-10T17:47:59.484Z,40.87
2018-09-10T17:50:26.666Z,40.54
2018-09-10T17:52:53.897Z,41.24
2018-09-10T17:55:21.099Z,41.90
2018-09-10T17:57:48.262Z,42.39
2018-09-10T18:00:15.523Z,41.06
2018-09-10T18:02:42.684Z,40.76
2018-09-10T18:05:09.911Z,40.68
2018-09-10T18:07:37.057Z,41.78
2018-09-10T18:10:04.286Z,41.64
2018-09-10T18:12:31.457Z,40.94
2018-09-10T18:14:58.707Z,41.83
2018-09-10T18:17:25.911Z,42.15
2018-09-10T18:19:53.146Z,41.78
2018-09-10T18:22:20.372Z,41.82
2018-09-10T18:24:47.566Z,43.35
2018-09-10T18:27:14.817Z,43.20
2018-09-10T18:29:42.033Z,44.12
2018-09-10T18:32:09.197Z,44.11
2018-09-10T18:34:36.429Z,44.36
2018-09-10T18:37:03.613Z,44.48
2018-09-10T18:39:30.826Z,44.69
2018-09-10T18:41:57.983Z,43.94
2018-09-10T18:44:25.231Z,44.18
2018-09-10T18:46:52.429Z,44.65
2018-09-10T18:49:19.682Z,46.29
2018-09-10T18:51:46.925Z,47.56
2018-09-10T18:54:14.157Z,47.78
2018-09-10T18:56:41.395Z,46.76
2018-09-10T18:59:08.618Z,46.46
2018-09-10T19:01:35.888Z,47.49
2018-09-10T19:04:03.120Z,47.16
2018-09-10T19:06:30.352Z,47.63
2018-09-10T19:08:57.568Z,48.85
2018-09-10T19:11:24.817Z,48.67
2018-09-10T19:13:52.055Z,48.85
2018-09-10T19:16:19.368Z,48.22
2018-09-10T19:18:46.526Z,49.16
2018-09-10T19:21:13.730Z,49.29
2018-09-10T19:23:40.896Z,49.60
2018-09-10T19:26:08.083Z,50.23
2018-09-10T19:28:35.289Z,50.63
2018-09-10T19:31:02.710Z,49.54
2018-09-10T19:33:30.221Z,50.60
2018-09-10T19:35:59.194Z,50.62
2018-09-10T19:38:26.487Z,51.03
2018-09-10T19:40:53.828Z,52.08
2018-09-10T19:43:21.039Z,52.34
2018-09-10T19:45:48.215Z,52.56
2018-09-10T19:48:15.426Z,52.66
2018-09-10T19:50:42.792Z,53.23
2018-09-10T19:53:10.145Z,53.36
2018-09-10T19:55:37.451Z,53.52
2018-09-10T19:58:04.704Z,53.67
2018-09-10T20:00:32.065Z,53.66
2018-09-10T20:02:59.284Z,53.74
2018-09-10T20:05:26.529Z,53.80
2018-09-10T20:07:53.933Z,53.85
2018-09-10T20:10:21.147Z,54.34
2018-09-10T20:12:48.354Z,55.06
2018-09-10T20:15:15.571Z,55.34
2018-09-10T20:17:42.689Z,55.14
2018-09-10T20:20:09.944Z,55.16
2018-09-10T20:22:37.180Z,55.41
2018-09-10T20:25:04.451Z,55.65
2018-09-10T20:27:31.898Z,55.91
2018-09-10T20:29:59.158Z,56.28
2018-09-10T20:32:26.400Z,54.72
2018-09-10T20:34:53.634Z,55.31
2018-09-10T20:37:20.896Z,55.48
2018-09-10T20:39:48.162Z,55.43
2018-09-10T20:42:15.496Z,56.06
2018-09-10T20:44:42.726Z,55.80
2018-09-10T20:47:09.992Z,55.89
2018-09-10T20:49:37.209Z,55.22
2018-09-10T20:52:04.545Z,55.75
2018-09-10T20:54:31.691Z,55.13
2018-09-10T20:56:58.917Z,54.91
2018-09-10T20:59:26.179Z,55.06
2018-09-10T21:01:53.439Z,55.07
2018-09-10T21:04:20.677Z,55.81
2018-09-10T21:06:47.905Z,55.91
2018-09-10T21:09:15.179Z,55.83
2018-09-10T21:11:42.447Z,55.89
2018-09-10T21:14:09.744Z,55.80
2018-09-10T21:16:36.982Z,55.12
2018-09-10T21:19:04.359Z,55.25
2018-09-10T21:21:31.533Z,55.02
2018-09-10T21:23:58.763Z,55.67
2018-09-10T21:26:26.030Z,56.12
2018-09-10T21:28:53.273Z,55.11
2018-09-10T21:31:20.570Z,55.49
2018-09-10T21:33:48.041Z,55.81
2018-09-10T21:36:15.228Z,56.00
2018-09-10T21:38:42.491Z,56.59
2018-09-10T21:41:09.715Z,56.91
2018-09-10T21:43:37.008Z,56.51
2018-09-10T21:46:04.309Z,56.46
2018-09-10T21:48:31.588Z,57.39
2018-09-10T21:50:58.815Z,57.23
2018-09-10T21:53:26.092Z,57.66
2018-09-10T21:55:53.231Z,57.90
2018-09-10T21:58:20.496Z,57.89
2018-09-10T22:00:57.710Z,56.73
2018-09-10T22:03:25.368Z,56.60
2018-09-10T22:05:53.095Z,57.10
2018-09-10T22:08:20.402Z,56.90
2018-09-10T22:10:47.909Z,56.77
2018-09-10T22:13:15.231Z,56.63
2018-09-10T22:15:42.703Z,56.32
2018-09-10T22:18:10.669Z,56.00
2018-09-10T22:20:37.887Z,56.17
2018-09-10T22:23:05.195Z,57.18
2018-09-10T22:25:32.455Z,57.50
2018-09-10T22:27:59.679Z,57.27
2018-09-10T22:30:26.887Z,57.17
2018-09-10T22:32:54.162Z,57.79
2018-09-10T22:35:21.377Z,58.44
2018-09-10T22:37:48.581Z,58.34
2018-09-10T22:40:15.820Z,58.08
2018-09-10T22:42:43.031Z,58.26
2018-09-10T22:45:10.284Z,59.01
2018-09-10T22:47:37.543Z,58.69
2018-09-10T22:50:04.862Z,59.67
2018-09-10T22:52:32.162Z,59.91
2018-09-10T22:54:59.343Z,60.48
2018-09-10T22:57:26.629Z,60.50
2018-09-10T22:59:53.868Z,60.41
2018-09-10T23:02:21.094Z,60.93
2018-09-10T23:04:48.291Z,61.16
2018-09-10T23:07:15.580Z,62.02
2018-09-10T23:09:42.843Z,61.96
2018-09-10T23:12:10.049Z,61.90
2018-09-10T23:14:37.319Z,62.77
2018-09-10T23:17:04.767Z,62.67
2018-09-10T23:19:31.996Z,61.72
2018-09-10T23:21:59.214Z,62.00
2018-09-10T23:24:26.515Z,62.79
2018-09-10T23:26:53.726Z,63.00
2018-09-10T23:29:20.973Z,63.29
2018-09-10T23:31:48.232Z,62.59
2018-09-10T23:34:15.443Z,63.22
2018-09-10T23:36:42.667Z,62.80
2018-09-10T23:39:09.928Z,63.73
2018-09-10T23:41:37.260Z,63.85
2018-09-10T23:44:04.752Z,63.87
2018-09-10T23:46:32.040Z,64.94
2018-09-10T23:48:59.215Z,65.37
2018-09-10T23:51:26.422Z,66.00
2018-09-10T23:53:53.675Z,66.36
2018-09-10T23:56:20.869Z,66.15
2018-09-10T23:58:48.081Z,65.90
